Toa Baja, PR

4:00 AM AST on April 24, 2017 (GMT -0400)
KP4MP DAVIS | | Change Station
Active Advisory: Coastal Hazard Statement Active Notice: Coastal Hazard Statement

Elev 17 ft 18.44 °N, 66.18 °W | Updated 9 seconds ago

Mostly Cloudy
Mostly Cloudy
76.6 °F
Feels Like 77 °F
N
4.0
Wind Variable Wind from East
Gusts 6.0 mph

Today
High -- | Low -- °F
--% Chance of Precip.
Yesterday
High -- | Low -- °F
Precip. -- in
Pressure 29.91 in
Visibility 10.0 miles
Clouds Scattered Clouds 3100 ft
Mostly Cloudy 5000 ft
Heat Index 77 °F
Dew Point 73 °F
Humidity 88%
Rainfall 0.00 in
Snow Depth Not available.
6:01 AM 6:44 PM
Waning Crescent, 7% visible
METAR TJSJ 240756Z 09007KT 10SM SCT031 BKN050 25/24 A2991 RMK AO2 SLP127 T02500244
Pressure 29.91 in
Visibility 10.0 miles
Clouds Scattered Clouds 3100 ft
Mostly Cloudy 5000 ft
Heat Index 77 °F
Dew Point 73 °F
Humidity 88%
Rainfall 0.00 in
Snow Depth Not available.
6:01 AM 6:44 PM
Waning Crescent, 7% visible
METAR TJSJ 240756Z 09007KT 10SM SCT031 BKN050 25/24 A2991 RMK AO2 SLP127 T02500244

Get Your Daily Forecast Email!

Thanks for signing up!

Be on the lookout for a verification email in your inbox.

You'll start receiving severe weather alerts in your inbox..

×

10-Day Weather Forecast

Almanac

Astronomy

Apr. 24, 2017 Rise Set
Actual Time
Civil Twilight
Nautical Twilight
Astronomical Twilight
Moon
Length of Visible Light
Length of Day
Tomorrow will be .
, % of the Moon is Illuminated

Today's Extremes

State Highs State Lows

Community

WunderPhotos

WunderBlog® & News

Nearby

Air Quality

  Air Quality AQ Index Pollutant
Not available.

Snow Depth

Station Depth Elevation

Earthquake Activity

City Distance Mag. Time & Date
Minimum magnitude displayed is 2.5.

Coastal Water Temperatures

Place Temperature

Stations

Nearby Weather Stations

Station Location Temp. Windchill Dew Point Humidity Wind Precip. Elev Updated Type
                   

Watches & Warnings

Coastal Hazard Statement
Issued: 3:46 AM AST Apr. 24, 2017 – National Weather Service

... High rip current risk in effect through late tonight...

* surf... breaking waves between 8 and 11 feet.

* Location... northwest to northeast beaches of Puerto Rico.

* Timing... through late tonight.

* Impacts... dangerous swimming conditions.

Precautionary/preparedness actions...

There is a high risk of rip currents.

Rip currents are powerful channels of water flowing quickly away
from shore... which occur most often at low spots or breaks in The
Sandbar and in the vicinity of structures such as groins...
jetties and piers. Heed the advice of lifeguards... beach patrol
flags and signs.

If you become caught in a rip current... Yell for help. Remain
calm... do not exhaust yourself and stay afloat while waiting for
help. If you have to swim out of a rip current... swim parallel to
shore and back toward the beach when possible. Do not attempt to
swim directly against a rip current as you will tire quickly.